Barbados Meteorological Services
Auto gathered TAF list
Powered by Apparatus software
For Flight WS2513
Contact Number 1-(246)-535-0021/2/3/4/5/6
WEB: http://www.barbadosweather.org

**********************************************

2017/09/22 18:50
TAF TXKF 221731Z 2218/2318 21010KT 9999 VCSH FEW018 SCT300
BECMG 2300/2302 16012KT


**********************************************
2017/09/22 18:06
TAF TLPL 221704Z 2218/2318 13015KT 9999 SCT026


**********************************************
2017/09/22 18:42
TAF TJSJ 221738Z 2218/2318 15010G20KT P6SM VCSH SCT020 BKN050 OVC100
FM230000 16010KT P6SM SCT020 BKN050
FM231300 13010KT P6SM SCT020 BKN100
AMD NOT SKED


**********************************************
2017/09/22 18:07
TAF TFFR 221700Z 2218/2318 15013KT 9999 SCT030 PROB30
TEMPO 2223/2305 4000 SHRA SCT020TCU PROB40
TEMPO 2313/2318 3000 SHRA SCT020TCU


**********************************************
2017/09/22 18:18
TAF TBPB 221700Z 2218/2318 11011KT 9999 SCT022= TAF TVSA 221700Z 2218/2318 11005KT 9999 SCT020


**********************************************
2017/09/22 18:23
TAF TAPA 221700Z 2218/2318 12010KT 9999 SCT018 PROB30
TEMPO 2218/2222 SHRA FEW014CB


**********************************************
2017/09/22 21:24
TAF
AMD KPHL 222116Z 2221/2324 35010KT P6SM FEW060 BKN280
FM230200 34004KT P6SM FEW080 SCT250
FM231400 34007KT P6SM SKC


**********************************************
2017/09/22 18:22
TAF KORF 221720Z 2218/2318 35010KT P6SM BKN200
FM222300 VRB03KT P6SM SCT200
FM231400 03008KT P6SM SCT200


**********************************************
2017/09/22 20:36
TAF
AMD KJFK 221931Z 2220/2324 36016G24KT P6SM BKN050 BKN250
FM230000 36014KT P6SM BKN050 BKN250
FM230400 36013KT P6SM FEW030 SCT050
FM231000 35009KT P6SM FEW030 SCT050
FM231500 35010KT P6SM FEW250


**********************************************
2017/09/22 21:36
TAF
AMD KIAD 222034Z 2221/2324 34008KT P6SM FEW160 OVC240


**********************************************
2017/09/22 20:33
TAF
AMD KEWR 221931Z 2220/2324 35016G22KT P6SM BKN050 BKN250
FM230200 36013G19KT P6SM FEW030 SCT050
FM230700 36010KT P6SM FEW030 FEW050
FM231500 36009KT P6SM FEW250


**********************************************
2017/09/22 18:44
TAF KCHS 221739Z 2218/2318 09006KT P6SM BKN040
FM230600 02003KT 6SM BR FEW200
FM231500 05008KT P6SM FEW050


**********************************************
2017/09/22 20:30
TAF
AMD KBOS 222021Z 2220/2324 01018G28KT 3SM -RA BR OVC012
FM230000 01014G27KT P6SM VCSH OVC012
FM231400 02011G18KT P6SM BKN010
FM231600 03010KT P6SM BKN020
FM231800 04007KT P6SM SCT035


**********************************************
2017/09/22 21:45
TAF TAF CYYZ 222042Z 2221/2324 13008KT P6SM FEW060
BECMG 2300/2302 VRB03KT
BECMG 2312/2314 20008KT
FM231800 24007KT P6SM SCT050
BECMG 2318/2320 VRB03KT
RMK NXT FCST BY 230000Z


**********************************************
2017/09/22 21:42
TAF CYUL 222038Z 2221/2318 01005KT P6SM SKC
BECMG 2223/2301 VRB03KT
FM231100 VRB03KT P6SM BKN040
BECMG 2313/2315 22008KT
FM231700 23012KT P6SM FEW040
RMK NXT FCST BY 230000Z


**********************************************
2017/09/22 21:42
TAF CYOW 222038Z 2221/2318 02005KT P6SM SKC
BECMG 2222/2224 VRB03KT
FM230900 VRB03KT P6SM BKN050
FM231600 24008KT P6SM FEW050
RMK NXT FCST BY 230000Z


**********************************************
2017/09/22 18:42
TAF CYMX 221739Z 2218/2318 10005KT P6SM FEW250
BECMG 2221/2223 VRB03KT
FM231100 VRB03KT P6SM BKN040
FM231500 23008KT P6SM SCT040
RMK NXT FCST BY 230000Z


**********************************************